Waynesville, OH (45068)

11:14 AM EST on February 10, 2016 (GMT -0500)
Rivers Edge | | Change Station
CLOSE
Current Station
Personal Weather Station
Location: Corwin, OH
Elevation: 840 ft
Nearby Weather Stations

Elev 840 ft 39.53 °N, 84.06 °W | Updated 2 seconds ago

Snow
Snow
16.2 °F
Feels Like 2 °F
N
13.0
Wind Variable Wind from West

Today
High -- | Low -- °F
--% Chance of Precip.
Yesterday
High -- | Low -- °F
Precip. -- in
Pressure 30.01 in
Visibility 2.5 miles
Clouds Mostly Cloudy 1700 ft
Overcast 2400 ft
Windchill 2 °F
Dew Point 12 °F
Humidity 84%
Rainfall 0.15 in
Snow Depth Not available.
7:34 AM 6:06 PM
Waxing Crescent, 6% visible
METAR KMGY 101553Z AUTO 27012KT 2 1/2SM -SN BKN017 OVC024 M09/M13 A2997 RMK AO2 SLP163 P0000 T10891133
Pressure 30.01 in
Visibility 2.5 miles
Clouds Mostly Cloudy 1700 ft
Overcast 2400 ft
Windchill 2 °F
Dew Point 12 °F
Humidity 84%
Rainfall 0.15 in
Snow Depth Not available.
7:34 AM 6:06 PM
Waxing Crescent, 6% visible
METAR KMGY 101553Z AUTO 27012KT 2 1/2SM -SN BKN017 OVC024 M09/M13 A2997 RMK AO2 SLP163 P0000 T10891133

10-Day Weather Forecast

Almanac

Astronomy

Feb. 10, 2016 Rise Set
Actual Time
Civil Twilight
Nautical Twilight
Astronomical Twilight
Moon
Length of Visible Light
Length of Day
Tomorrow will be .
, % of the Moon is Illuminated

Today's Extremes

State Highs State Lows

Community

WunderPhotos

Upload Photos

1,891,864 photos uploaded!

WunderBlog® & News

Nearby

Air Quality

  Air Quality AQ Index Pollutant
Not available.

Snow Depth

Station Depth Elevation

Earthquake Activity

City Distance Mag. Time & Date
Minimum magnitude displayed is 2.5.

Coastal Water Temperatures

Place Temperature

Stations

Nearby Weather Stations

Station Location Temp. Windchill Dew Point Humidity Wind Precip. Elev Updated Type
                   

Watches & Warnings

There are currently no watches in effect.